createdAt,value
2022-11-17T06:57:28.417Z,921.35
2022-11-17T06:58:28.278Z,921.36
2022-11-17T06:59:28.257Z,921.42
2022-11-17T07:00:28.302Z,921.35
2022-11-17T07:01:28.240Z,921.39
2022-11-17T07:02:28.209Z,921.40
2022-11-17T07:03:28.191Z,921.39
2022-11-17T07:04:28.230Z,921.43
2022-11-17T07:05:28.153Z,921.44
2022-11-17T07:06:28.180Z,921.53
2022-11-17T07:07:28.187Z,921.48
2022-11-17T07:08:28.181Z,921.49
2022-11-17T07:09:28.119Z,921.47
2022-11-17T07:10:28.138Z,921.56
2022-11-17T07:11:28.155Z,921.54
2022-11-17T07:12:28.090Z,921.54
2022-11-17T07:13:28.220Z,921.58
2022-11-17T07:14:28.089Z,921.60
2022-11-17T07:15:28.055Z,921.55
2022-11-17T07:16:28.113Z,921.56
2022-11-17T07:17:42.796Z,921.49
2022-11-17T07:18:28.023Z,921.61
2022-11-17T07:19:28.009Z,921.56
2022-11-17T07:20:28.130Z,921.57
2022-11-17T07:21:28.001Z,921.58
2022-11-17T07:22:28.059Z,921.60
2022-11-17T07:23:28.010Z,921.58
2022-11-17T07:24:27.958Z,921.59
2022-11-17T07:25:27.969Z,921.65
2022-11-17T07:26:27.955Z,921.68
2022-11-17T07:27:28.005Z,921.69
2022-11-17T07:28:27.946Z,921.70
2022-11-17T07:29:27.958Z,921.70
2022-11-17T07:30:27.953Z,921.70
2022-11-17T07:31:28.095Z,921.70
2022-11-17T07:32:27.998Z,921.71
2022-11-17T07:33:28.150Z,921.76
2022-11-17T07:34:28.109Z,921.79
2022-11-17T07:35:27.902Z,921.80
2022-11-17T07:36:27.925Z,921.87
2022-11-17T07:37:27.884Z,921.85
2022-11-17T07:38:27.866Z,921.84
2022-11-17T07:39:27.864Z,921.90
2022-11-17T07:40:27.843Z,921.94
2022-11-17T07:41:28.325Z,921.93
2022-11-17T07:42:27.818Z,921.97
2022-11-17T07:43:27.792Z,922.00
2022-11-17T07:44:29.070Z,922.05
2022-11-17T07:46:54.961Z,922.10
2022-11-17T07:49:54.292Z,921.98
2022-11-17T07:50:54.236Z,921.99
2022-11-17T07:51:55.052Z,922.02
2022-11-17T07:52:54.861Z,922.02
2022-11-17T07:53:54.223Z,921.97
2022-11-17T07:54:54.191Z,921.97
2022-11-17T07:55:54.177Z,921.94
2022-11-17T07:56:54.178Z,922.00
2022-11-17T07:57:54.174Z,921.98
2022-11-17T07:58:54.279Z,921.98
2022-11-17T07:59:55.513Z,921.96
2022-11-17T08:00:55.306Z,921.97
2022-11-17T08:01:54.140Z,921.85
2022-11-17T08:02:55.003Z,921.87
2022-11-17T08:03:54.192Z,921.85
2022-11-17T08:04:54.085Z,921.83
2022-11-17T08:05:54.095Z,921.86
2022-11-17T08:06:54.110Z,921.82
2022-11-17T08:07:54.044Z,921.73
2022-11-17T08:08:54.045Z,921.68
2022-11-17T08:09:54.151Z,921.73
2022-11-17T08:10:54.028Z,921.63
2022-11-17T08:11:54.093Z,921.65
2022-11-17T08:12:54.002Z,921.54
2022-11-17T08:13:53.994Z,921.50
2022-11-17T08:14:54.003Z,921.44
2022-11-17T08:15:54.079Z,921.47
2022-11-17T08:16:54.427Z,921.45
2022-11-17T08:18:08.961Z,921.36
2022-11-17T08:18:53.935Z,921.38
2022-11-17T08:19:53.918Z,921.32
2022-11-17T08:20:53.960Z,921.38
2022-11-17T08:21:53.897Z,921.35
2022-11-17T08:22:53.903Z,921.29
2022-11-17T08:23:53.881Z,921.34
2022-11-17T08:24:53.881Z,921.31
2022-11-17T08:25:53.861Z,921.32
2022-11-17T08:26:53.877Z,921.13
2022-11-17T08:27:53.838Z,921.24
2022-11-17T08:28:58.392Z,921.15
2022-11-17T08:29:54.913Z,921.18
2022-11-17T08:30:54.468Z,921.16
2022-11-17T08:31:53.855Z,921.19
2022-11-17T08:32:53.785Z,921.19
2022-11-17T08:33:53.874Z,921.10
2022-11-17T08:34:53.777Z,921.11
2022-11-17T08:35:53.750Z,920.95
2022-11-17T08:36:53.741Z,921.02
2022-11-17T08:37:53.769Z,920.87
2022-11-17T08:38:53.791Z,921.07
2022-11-17T08:39:53.738Z,921.01
2022-11-17T08:40:53.827Z,921.01
2022-11-17T08:41:53.696Z,921.01
2022-11-17T08:42:59.110Z,920.99
2022-11-17T08:43:54.718Z,921.08
2022-11-17T08:44:53.655Z,920.99
2022-11-17T08:45:53.656Z,921.01
2022-11-17T08:46:53.638Z,920.87
2022-11-17T08:47:53.669Z,920.79
2022-11-17T08:48:56.808Z,920.90
2022-11-17T08:49:53.726Z,920.93
2022-11-17T08:50:53.633Z,920.90
2022-11-17T08:51:53.577Z,920.89
2022-11-17T08:52:53.575Z,920.88
2022-11-17T08:53:53.572Z,920.86
2022-11-17T08:54:53.661Z,920.87
2022-11-17T08:55:53.613Z,920.89
2022-11-17T08:56:53.966Z,920.88
2022-11-17T08:57:53.517Z,920.89
2022-11-17T08:58:53.531Z,920.82
2022-11-17T08:59:53.485Z,920.64
2022-11-17T09:00:53.545Z,920.74
2022-11-17T09:01:53.472Z,920.81
2022-11-17T09:02:53.456Z,920.80
2022-11-17T09:03:53.581Z,920.82
2022-11-17T09:04:53.434Z,920.82
2022-11-17T09:05:53.541Z,920.84
2022-11-17T09:06:53.473Z,920.81
2022-11-17T09:07:53.652Z,920.81
2022-11-17T09:08:53.444Z,920.88
2022-11-17T09:09:53.504Z,920.88
2022-11-17T09:10:53.430Z,920.79
2022-11-17T09:11:53.354Z,920.83
2022-11-17T09:12:53.883Z,920.75
2022-11-17T09:13:53.351Z,920.75
2022-11-17T09:14:53.337Z,920.86
2022-11-17T09:15:53.370Z,920.74
2022-11-17T09:16:53.367Z,920.62
2022-11-17T09:21:30.793Z,920.65
2022-11-17T09:22:30.624Z,920.68
2022-11-17T09:23:30.652Z,920.65
2022-11-17T09:24:30.613Z,920.80
2022-11-17T09:25:30.607Z,920.77
2022-11-17T09:26:30.645Z,920.86
2022-11-17T09:27:30.695Z,920.78
2022-11-17T09:28:30.575Z,920.81
2022-11-17T09:29:32.525Z,920.85
2022-11-17T09:34:12.633Z,920.79
2022-11-17T09:35:11.159Z,920.81
2022-11-17T09:42:41.658Z,921.09
2022-11-17T09:43:40.692Z,921.05
2022-11-17T09:48:40.599Z,921.11
2022-11-17T09:48:55.192Z,921.09
2022-11-17T09:49:58.702Z,921.08
2022-11-17T09:50:55.131Z,921.12
2022-11-17T09:51:54.021Z,921.02
2022-11-17T09:52:54.144Z,921.07
2022-11-17T09:53:54.011Z,921.07
2022-11-17T09:54:53.984Z,921.09
2022-11-17T09:55:53.996Z,921.20
2022-11-17T09:59:33.128Z,921.12
2022-11-17T10:00:32.927Z,921.08
2022-11-17T10:01:33.120Z,921.10
2022-11-17T10:02:33.073Z,921.16
2022-11-17T10:03:33.287Z,921.22
2022-11-17T10:04:33.060Z,921.17
2022-11-17T10:05:32.952Z,921.20
2022-11-17T10:06:32.829Z,921.18
2022-11-17T10:07:33.060Z,921.27
2022-11-17T10:08:32.931Z,921.15
2022-11-17T10:09:32.837Z,921.24
2022-11-17T10:10:32.896Z,921.20
2022-11-17T10:11:32.873Z,921.31
2022-11-17T10:12:32.782Z,921.22
2022-11-17T10:13:33.284Z,921.33
2022-11-17T10:14:33.028Z,921.39
2022-11-17T10:15:33.032Z,921.40
2022-11-17T10:16:32.836Z,921.40
2022-11-17T10:17:37.600Z,921.39
2022-11-17T10:18:37.662Z,921.39
2022-11-17T10:19:33.681Z,921.38
2022-11-17T10:20:32.779Z,921.40
2022-11-17T10:21:32.685Z,921.39
2022-11-17T10:22:32.748Z,921.43
2022-11-17T10:23:32.771Z,921.27
2022-11-17T10:24:32.699Z,921.26
2022-11-17T10:25:32.811Z,921.27
2022-11-17T10:26:32.632Z,921.39
2022-11-17T10:27:33.088Z,921.35
2022-11-17T10:28:32.745Z,921.26
2022-11-17T10:29:32.799Z,921.34
2022-11-17T10:30:33.160Z,921.27
2022-11-17T10:31:32.868Z,921.28
2022-11-17T10:32:32.916Z,921.37
2022-11-17T10:33:32.987Z,921.13
2022-11-17T10:34:38.844Z,921.32
2022-11-17T10:35:33.768Z,921.30
2022-11-17T10:36:32.659Z,921.36
2022-11-17T10:37:32.594Z,921.27
2022-11-17T10:38:32.829Z,921.23
2022-11-17T10:39:32.648Z,921.42
2022-11-17T10:40:32.495Z,921.19
2022-11-17T10:41:32.793Z,921.35
2022-11-17T10:42:32.522Z,921.36
2022-11-17T10:43:32.589Z,921.20
2022-11-17T10:44:32.556Z,921.39
2022-11-17T10:45:32.564Z,921.32
2022-11-17T10:46:43.232Z,921.38
2022-11-17T10:47:33.412Z,921.36
2022-11-17T10:48:32.606Z,921.33
2022-11-17T10:49:32.445Z,921.30
2022-11-17T10:50:32.555Z,921.34
2022-11-17T10:51:32.408Z,921.52
2022-11-17T10:52:32.359Z,921.51
2022-11-17T10:53:32.624Z,921.53
2022-11-17T10:54:32.352Z,921.47
2022-11-17T10:55:32.302Z,921.52
2022-11-17T10:56:32.323Z,921.47
2022-11-17T10:57:32.281Z,921.51
2022-11-17T10:58:32.424Z,921.49
2022-11-17T10:59:32.292Z,921.58
2022-11-17T11:00:32.279Z,921.67
2022-11-17T11:01:32.386Z,921.63
2022-11-17T11:02:32.305Z,921.62
2022-11-17T11:03:32.439Z,921.61
2022-11-17T11:04:32.223Z,921.65
2022-11-17T11:05:32.291Z,921.60
2022-11-17T11:06:32.227Z,921.51
2022-11-17T11:07:32.271Z,921.63
2022-11-17T11:08:32.165Z,921.74
2022-11-17T11:09:32.205Z,921.75
2022-11-17T11:10:32.219Z,921.60
2022-11-17T11:11:36.275Z,921.69
2022-11-17T11:12:32.191Z,921.75
2022-11-17T11:13:32.118Z,921.70
2022-11-17T11:14:32.158Z,921.74
2022-11-17T11:15:32.121Z,921.71
2022-11-17T11:16:32.108Z,921.73
2022-11-17T11:17:43.073Z,921.66
2022-11-17T11:18:32.066Z,921.82
2022-11-17T11:19:32.321Z,921.78
2022-11-17T11:20:32.049Z,921.76
2022-11-17T11:21:32.399Z,921.86
2022-11-17T11:22:32.252Z,921.78
2022-11-17T11:23:32.054Z,921.72
2022-11-17T11:24:32.006Z,921.76
2022-11-17T11:25:35.070Z,921.78
2022-11-17T11:26:32.029Z,921.65
2022-11-17T11:27:31.990Z,921.67
2022-11-17T11:28:31.955Z,921.65
2022-11-17T11:29:32.062Z,921.70
2022-11-17T11:30:32.011Z,921.72
2022-11-17T11:31:32.046Z,921.68
2022-11-17T11:32:31.991Z,921.64
2022-11-17T11:33:32.034Z,921.68
2022-11-17T11:34:31.892Z,921.63
2022-11-17T11:35:31.977Z,921.64
2022-11-17T11:36:31.908Z,921.59
2022-11-17T11:37:31.950Z,921.60
2022-11-17T11:38:32.160Z,921.56
2022-11-17T11:39:32.022Z,921.59
2022-11-17T11:40:32.216Z,921.51
2022-11-17T11:41:31.937Z,921.55
2022-11-17T11:42:31.853Z,921.60
2022-11-17T11:43:31.806Z,921.64
2022-11-17T11:44:31.844Z,921.58
2022-11-17T11:45:32.218Z,921.63
2022-11-17T11:46:31.905Z,921.67
2022-11-17T11:47:42.828Z,921.70
2022-11-17T11:48:31.851Z,921.58
2022-11-17T11:49:31.789Z,921.60
2022-11-17T11:50:31.878Z,921.62
2022-11-17T11:51:32.128Z,921.64
2022-11-17T11:52:31.836Z,921.59
2022-11-17T11:53:31.773Z,921.65
2022-11-17T11:54:31.681Z,921.59
2022-11-17T11:55:31.700Z,921.56
2022-11-17T11:56:31.735Z,921.50
2022-11-17T11:57:31.996Z,921.49
2022-11-17T11:58:31.790Z,921.44
2022-11-17T11:59:31.680Z,921.43
2022-11-17T12:00:31.621Z,921.44
2022-11-17T12:01:31.655Z,921.53
2022-11-17T12:02:31.744Z,921.48
2022-11-17T12:03:31.767Z,921.46
2022-11-17T12:04:31.681Z,921.46
2022-11-17T12:05:31.650Z,921.44
2022-11-17T12:06:31.747Z,921.37
2022-11-17T12:07:31.812Z,921.45
2022-11-17T12:08:31.593Z,921.43
2022-11-17T12:09:31.694Z,921.45
2022-11-17T12:10:31.773Z,921.54
2022-11-17T12:11:31.546Z,921.51
2022-11-17T12:12:31.576Z,921.52
2022-11-17T12:13:31.484Z,921.45
2022-11-17T12:14:31.582Z,921.52
2022-11-17T12:15:31.485Z,921.50
2022-11-17T12:16:31.443Z,921.45
2022-11-17T12:17:31.497Z,921.48
2022-11-17T12:18:31.439Z,921.48
2022-11-17T12:19:31.420Z,921.46
2022-11-17T12:20:31.440Z,921.48
2022-11-17T12:21:31.452Z,921.47
2022-11-17T12:22:31.463Z,921.46
2022-11-17T12:23:31.499Z,921.50
2022-11-17T12:24:31.354Z,921.48
2022-11-17T12:25:31.355Z,921.57
2022-11-17T12:26:31.344Z,921.51
2022-11-17T12:27:31.389Z,921.53
2022-11-17T12:28:31.321Z,921.61
2022-11-17T12:29:31.307Z,921.58
2022-11-17T12:30:31.304Z,921.66
2022-11-17T12:31:31.315Z,921.68
2022-11-17T12:32:31.303Z,921.65
2022-11-17T12:33:31.269Z,921.62
2022-11-17T12:34:31.353Z,921.55
2022-11-17T12:35:31.245Z,921.67
2022-11-17T12:36:31.783Z,921.58
2022-11-17T12:37:31.238Z,921.59
2022-11-17T12:38:31.208Z,921.54
2022-11-17T12:39:31.247Z,921.57
2022-11-17T12:40:31.235Z,921.65
2022-11-17T12:41:31.185Z,921.65
2022-11-17T12:42:31.255Z,921.54
2022-11-17T12:43:31.183Z,921.48
2022-11-17T12:44:31.183Z,921.46
2022-11-17T12:45:31.176Z,921.42
2022-11-17T12:46:31.233Z,921.49
2022-11-17T12:47:31.256Z,921.42
2022-11-17T12:48:34.406Z,921.37
2022-11-17T12:49:31.113Z,921.41
2022-11-17T12:50:31.082Z,921.36
2022-11-17T12:51:31.142Z,921.39
2022-11-17T12:52:31.055Z,921.33
2022-11-17T12:53:31.124Z,921.40
2022-11-17T12:54:31.031Z,921.40
2022-11-17T12:55:31.156Z,921.27
2022-11-17T12:56:31.028Z,921.39
2022-11-17T12:57:31.026Z,921.33
2022-11-17T12:58:31.009Z,921.34
2022-11-17T12:59:31.101Z,921.33
2022-11-17T13:00:30.990Z,921.37
2022-11-17T13:01:31.085Z,921.40
2022-11-17T13:02:30.978Z,921.40
2022-11-17T13:03:30.974Z,921.43
2022-11-17T13:04:30.932Z,921.47
2022-11-17T13:05:30.941Z,921.39
2022-11-17T13:06:35.793Z,921.48
2022-11-17T13:07:32.054Z,921.46
2022-11-17T13:08:30.897Z,921.46
2022-11-17T13:09:30.917Z,921.45
2022-11-17T13:10:30.881Z,921.49
2022-11-17T13:11:30.936Z,921.47
2022-11-17T13:12:30.847Z,921.57
2022-11-17T13:13:30.903Z,921.51
2022-11-17T13:14:30.840Z,921.47
2022-11-17T13:15:30.840Z,921.49
2022-11-17T13:16:30.906Z,921.43
2022-11-17T13:17:30.913Z,921.42
2022-11-17T13:18:30.849Z,921.39
2022-11-17T13:19:30.795Z,921.42
2022-11-17T13:20:30.784Z,921.44
2022-11-17T13:21:30.787Z,921.48
2022-11-17T13:22:30.744Z,921.44
2022-11-17T13:23:30.788Z,921.43
2022-11-17T13:24:30.764Z,921.44
2022-11-17T13:25:30.745Z,921.49
2022-11-17T13:26:30.746Z,921.47
2022-11-17T13:27:30.769Z,921.50
2022-11-17T13:28:30.744Z,921.46
2022-11-17T13:29:30.668Z,921.52
2022-11-17T13:30:30.681Z,921.50
2022-11-17T13:31:30.658Z,921.47
2022-11-17T13:32:30.643Z,921.46
2022-11-17T13:33:33.325Z,921.50
2022-11-17T13:34:31.683Z,921.55
2022-11-17T13:35:30.683Z,921.57
2022-11-17T13:36:30.623Z,921.57
2022-11-17T13:37:30.584Z,921.49
2022-11-17T13:38:30.599Z,921.52
2022-11-17T13:39:30.563Z,921.53
2022-11-17T13:40:30.576Z,921.57
2022-11-17T13:41:30.578Z,921.57
2022-11-17T13:42:30.626Z,921.52
2022-11-17T13:43:30.627Z,921.59
2022-11-17T13:44:30.590Z,921.55
2022-11-17T13:45:30.526Z,921.57
2022-11-17T13:46:30.568Z,921.54
2022-11-17T13:47:30.546Z,921.53
2022-11-17T13:48:30.537Z,921.51
2022-11-17T13:49:30.484Z,921.54
2022-11-17T13:50:30.443Z,921.50
2022-11-17T13:51:30.472Z,921.53
2022-11-17T13:52:35.252Z,921.48
2022-11-17T13:53:31.569Z,921.46
2022-11-17T13:54:30.465Z,921.47
2022-11-17T13:55:30.416Z,921.51
2022-11-17T13:56:30.410Z,921.48
2022-11-17T13:57:30.484Z,921.43
2022-11-17T13:58:30.470Z,921.43
2022-11-17T13:59:30.364Z,921.39
2022-11-17T14:00:30.420Z,921.38
2022-11-17T14:01:30.399Z,921.40
2022-11-17T14:02:30.363Z,921.39
2022-11-17T14:03:30.937Z,921.43
2022-11-17T14:04:30.338Z,921.46
2022-11-17T14:05:30.295Z,921.47
2022-11-17T14:06:30.284Z,921.43
2022-11-17T14:07:30.417Z,921.44
2022-11-17T14:08:30.254Z,921.40
2022-11-17T14:09:30.248Z,921.39
2022-11-17T14:10:30.258Z,921.43
2022-11-17T14:11:30.226Z,921.42
2022-11-17T14:12:30.242Z,921.49
2022-11-17T14:13:30.395Z,921.45
2022-11-17T14:14:31.189Z,921.45
2022-11-17T14:15:30.485Z,921.43
2022-11-17T14:16:30.216Z,921.48
2022-11-17T14:17:35.232Z,921.45
2022-11-17T14:18:30.312Z,921.49
2022-11-17T14:19:30.169Z,921.46
2022-11-17T14:20:30.129Z,921.47
2022-11-17T14:21:30.127Z,921.46
2022-11-17T14:22:31.959Z,921.49
2022-11-17T14:23:30.116Z,921.54
2022-11-17T14:24:30.119Z,921.58
2022-11-17T14:25:30.091Z,921.55
2022-11-17T14:26:30.070Z,921.54
2022-11-17T14:27:30.051Z,921.49
2022-11-17T14:28:30.202Z,921.49
2022-11-17T14:29:30.037Z,921.46
2022-11-17T14:30:30.031Z,921.42
2022-11-17T14:31:30.044Z,921.36
2022-11-17T14:32:30.205Z,921.35
2022-11-17T14:33:30.039Z,921.41
2022-11-17T14:34:29.985Z,921.40
2022-11-17T14:35:30.222Z,921.48
2022-11-17T14:36:30.052Z,921.44
2022-11-17T14:37:30.021Z,921.44
2022-11-17T14:38:30.955Z,921.51
2022-11-17T14:39:30.031Z,921.47
2022-11-17T14:40:29.944Z,921.47
2022-11-17T14:41:29.938Z,921.39
2022-11-17T14:42:34.718Z,921.44
2022-11-17T14:43:30.902Z,921.39
2022-11-17T14:44:29.930Z,921.40
2022-11-17T14:45:29.925Z,921.38
2022-11-17T14:46:29.906Z,921.41
2022-11-17T14:47:50.986Z,921.43
2022-11-17T14:48:29.825Z,921.38
2022-11-17T14:49:29.862Z,921.39
2022-11-17T14:50:29.844Z,921.39
2022-11-17T14:51:29.859Z,921.39
2022-11-17T14:52:29.825Z,921.39
2022-11-17T14:53:29.844Z,921.40
2022-11-17T14:54:29.897Z,921.39
2022-11-17T14:55:29.803Z,921.41
2022-11-17T14:56:29.809Z,921.45
2022-11-17T14:57:29.778Z,921.41
2022-11-17T14:58:29.776Z,921.42
2022-11-17T14:59:29.761Z,921.41
2022-11-17T15:02:07.624Z,921.46
2022-11-17T15:03:07.885Z,921.42
2022-11-17T15:04:34.585Z,921.41
2022-11-17T15:05:08.579Z,921.42
2022-11-17T15:06:07.557Z,921.44
2022-11-17T15:07:07.609Z,921.49
2022-11-17T15:08:07.609Z,921.49
2022-11-17T15:09:07.687Z,921.48
2022-11-17T15:10:07.513Z,921.42
2022-11-17T15:11:07.564Z,921.43
2022-11-17T15:12:07.551Z,921.38
2022-11-17T15:13:07.499Z,921.41
2022-11-17T15:14:07.550Z,921.44
2022-11-17T15:15:07.528Z,921.49
2022-11-17T15:16:07.467Z,921.42
2022-11-17T15:17:11.168Z,921.53
2022-11-17T15:18:08.498Z,921.48
2022-11-17T15:19:07.529Z,921.51
2022-11-17T15:20:07.478Z,921.49
2022-11-17T15:21:07.496Z,921.48
2022-11-17T15:22:07.386Z,921.52
2022-11-17T15:23:07.371Z,921.50
2022-11-17T15:24:07.346Z,921.43
2022-11-17T15:25:07.494Z,921.45
2022-11-17T15:26:07.357Z,921.42
2022-11-17T15:27:08.178Z,921.43
2022-11-17T15:28:07.302Z,921.41
2022-11-17T15:29:07.298Z,921.36
2022-11-17T15:30:07.443Z,921.37
2022-11-17T15:31:07.276Z,921.36
2022-11-17T15:32:07.267Z,921.45
2022-11-17T15:33:07.318Z,921.44
2022-11-17T15:34:07.243Z,921.37
2022-11-17T15:35:07.601Z,921.38
2022-11-17T15:36:07.321Z,921.40
2022-11-17T15:37:07.230Z,921.44
2022-11-17T15:38:07.205Z,921.46
2022-11-17T15:39:07.269Z,921.46
2022-11-17T15:40:07.182Z,921.44
2022-11-17T15:41:07.210Z,921.49
2022-11-17T15:42:07.177Z,921.45
2022-11-17T15:43:07.196Z,921.56
2022-11-17T15:44:07.143Z,921.55
2022-11-17T15:45:07.129Z,921.57
2022-11-17T15:46:07.141Z,921.61
2022-11-17T15:47:07.278Z,921.54
2022-11-17T15:48:07.158Z,921.58
2022-11-17T15:49:07.139Z,921.55
2022-11-17T15:50:07.067Z,921.54
2022-11-17T15:51:07.206Z,921.51
2022-11-17T15:52:07.068Z,921.56
2022-11-17T15:53:07.175Z,921.49
2022-11-17T15:54:07.156Z,921.48
2022-11-17T15:55:07.202Z,921.46
2022-11-17T15:56:07.098Z,921.47
2022-11-17T15:57:07.164Z,921.44
2022-11-17T15:58:06.990Z,921.44
2022-11-17T15:59:07.052Z,921.40
2022-11-17T16:00:07.006Z,921.38
2022-11-17T16:01:07.054Z,921.36
2022-11-17T16:02:06.973Z,921.39
2022-11-17T16:03:06.953Z,921.42
2022-11-17T16:04:06.929Z,921.45
2022-11-17T16:05:06.935Z,921.48
2022-11-17T16:06:07.055Z,921.49
2022-11-17T16:07:07.111Z,921.46
2022-11-17T16:08:06.898Z,921.51
2022-11-17T16:09:06.924Z,921.52
2022-11-17T16:10:06.956Z,921.51
2022-11-17T16:11:06.920Z,921.43
2022-11-17T16:12:06.894Z,921.44
2022-11-17T16:13:06.873Z,921.40
2022-11-17T16:14:06.811Z,921.37
2022-11-17T16:15:06.911Z,921.37
2022-11-17T16:16:06.792Z,921.37
2022-11-17T16:17:06.868Z,921.34
2022-11-17T16:18:06.839Z,921.35
2022-11-17T16:19:06.799Z,921.31
2022-11-17T16:20:06.861Z,921.25
2022-11-17T16:21:06.743Z,921.24
2022-11-17T16:22:06.736Z,921.19
2022-11-17T16:23:06.749Z,921.24
2022-11-17T16:24:06.800Z,921.21
2022-11-17T16:25:06.762Z,921.29
2022-11-17T16:26:07.204Z,921.31
2022-11-17T16:27:06.694Z,921.28
2022-11-17T16:28:06.693Z,921.29
2022-11-17T16:29:06.682Z,921.33
2022-11-17T16:30:06.747Z,921.37
2022-11-17T16:31:06.690Z,921.43
2022-11-17T16:32:07.019Z,921.40
2022-11-17T16:33:06.705Z,921.48
2022-11-17T16:34:06.624Z,921.50
2022-11-17T16:35:06.622Z,921.55
2022-11-17T16:36:06.622Z,921.51
2022-11-17T16:37:06.688Z,921.53
2022-11-17T16:38:06.629Z,921.50
2022-11-17T16:39:06.598Z,921.49
2022-11-17T16:40:06.569Z,921.42
2022-11-17T16:41:06.922Z,921.46
2022-11-17T16:42:06.552Z,921.43
2022-11-17T16:43:06.510Z,921.43
2022-11-17T16:44:06.550Z,921.41
2022-11-17T16:45:06.510Z,921.40
2022-11-17T16:46:06.485Z,921.35
2022-11-17T16:47:21.596Z,921.42
2022-11-17T16:48:06.471Z,921.43
2022-11-17T16:49:06.501Z,921.45
2022-11-17T16:50:06.493Z,921.39
2022-11-17T16:51:06.597Z,921.49
2022-11-17T16:52:06.561Z,921.50
2022-11-17T16:53:06.421Z,921.48
2022-11-17T16:54:06.397Z,921.52
2022-11-17T16:55:06.467Z,921.52
2022-11-17T16:56:06.390Z,921.47
2022-11-17T16:57:06.410Z,921.45
2022-11-17T16:58:06.358Z,921.42
2022-11-17T16:59:06.351Z,921.41
2022-11-17T17:00:06.376Z,921.37
2022-11-17T17:01:12.031Z,921.29
2022-11-17T17:02:07.333Z,921.25
2022-11-17T17:03:06.385Z,921.24
2022-11-17T17:04:06.296Z,921.26
2022-11-17T17:05:06.395Z,921.25
2022-11-17T17:06:06.353Z,921.29
2022-11-17T17:07:06.333Z,921.29
2022-11-17T17:08:06.315Z,921.27
2022-11-17T17:09:06.262Z,921.25
2022-11-17T17:10:06.285Z,921.29
2022-11-17T17:11:06.265Z,921.29
2022-11-17T17:12:06.336Z,921.33
2022-11-17T17:13:06.238Z,921.32
2022-11-17T17:14:06.197Z,921.33
2022-11-17T17:15:06.266Z,921.30
2022-11-17T17:16:06.216Z,921.27
2022-11-17T17:17:06.189Z,921.30
2022-11-17T17:18:06.191Z,921.35
2022-11-17T17:19:06.155Z,921.29
2022-11-17T17:20:06.134Z,921.29
2022-11-17T17:21:06.164Z,921.26
2022-11-17T17:22:06.119Z,921.21
2022-11-17T17:23:06.216Z,921.26
2022-11-17T17:24:06.166Z,921.23
2022-11-17T17:25:06.113Z,921.26
2022-11-17T17:26:06.061Z,921.21
2022-11-17T17:27:06.298Z,921.25
2022-11-17T17:28:06.086Z,921.28
2022-11-17T17:29:06.080Z,921.27
2022-11-17T17:30:06.063Z,921.23
2022-11-17T17:31:06.016Z,921.22
2022-11-17T17:32:06.014Z,921.30
2022-11-17T17:33:06.064Z,921.24
2022-11-17T17:34:06.026Z,921.27
2022-11-17T17:35:06.034Z,921.22
2022-11-17T17:36:05.968Z,921.22
2022-11-17T17:37:05.986Z,921.17
2022-11-17T17:38:05.942Z,921.19
2022-11-17T17:39:06.010Z,921.18
2022-11-17T17:40:05.919Z,921.20
2022-11-17T17:41:06.028Z,921.22
2022-11-17T17:42:05.964Z,921.18
2022-11-17T17:43:05.915Z,921.19
2022-11-17T17:44:05.919Z,921.17
2022-11-17T17:45:05.958Z,921.16
2022-11-17T17:46:07.077Z,921.16
2022-11-17T17:47:05.891Z,921.18
2022-11-17T17:48:05.868Z,921.19
2022-11-17T17:49:06.032Z,921.18
2022-11-17T17:50:05.996Z,921.19
2022-11-17T17:51:05.891Z,921.25
2022-11-17T17:52:10.923Z,921.18
2022-11-17T17:53:06.798Z,921.22
2022-11-17T17:54:05.800Z,921.25
2022-11-17T17:55:05.767Z,921.25
2022-11-17T17:56:05.795Z,921.28
2022-11-17T17:57:05.774Z,921.29
2022-11-17T17:58:05.810Z,921.31
2022-11-17T17:59:05.850Z,921.31
2022-11-17T18:00:05.747Z,921.34
2022-11-17T18:01:05.724Z,921.33
2022-11-17T18:02:05.716Z,921.37
2022-11-17T18:03:05.778Z,921.36
2022-11-17T18:04:05.870Z,921.36
2022-11-17T18:05:05.865Z,921.41
2022-11-17T18:06:05.686Z,921.41
2022-11-17T18:07:05.781Z,921.42
2022-11-17T18:08:05.629Z,921.36
2022-11-17T18:09:05.631Z,921.35
2022-11-17T18:10:05.643Z,921.33
2022-11-17T18:11:05.689Z,921.34
2022-11-17T18:12:05.646Z,921.36
2022-11-17T18:13:10.573Z,921.35
2022-11-17T18:14:06.596Z,921.41
2022-11-17T18:15:05.749Z,921.44
2022-11-17T18:16:05.557Z,921.46
2022-11-17T18:17:05.678Z,921.45
2022-11-17T18:18:05.519Z,921.40
2022-11-17T18:19:05.527Z,921.43
2022-11-17T18:20:05.507Z,921.37
2022-11-17T18:21:05.533Z,921.35
2022-11-17T18:22:05.507Z,921.32
2022-11-17T18:23:05.481Z,921.34
2022-11-17T18:24:05.561Z,921.33
2022-11-17T18:25:07.887Z,921.38
2022-11-17T18:26:05.446Z,921.38
2022-11-17T18:27:05.456Z,921.36
2022-11-17T18:28:05.452Z,921.37
2022-11-17T18:29:05.637Z,921.31
2022-11-17T18:30:05.463Z,921.32
2022-11-17T18:31:05.517Z,921.33
2022-11-17T18:32:05.392Z,921.31
2022-11-17T18:33:05.576Z,921.32
2022-11-17T18:34:05.485Z,921.32
2022-11-17T18:35:05.428Z,921.30
2022-11-17T18:36:05.363Z,921.24
2022-11-17T18:37:05.343Z,921.25
2022-11-17T18:38:05.325Z,921.23
2022-11-17T18:39:05.323Z,921.30
2022-11-17T18:40:05.587Z,921.32
2022-11-17T18:41:06.000Z,921.32
2022-11-17T18:42:05.305Z,921.36
2022-11-17T18:43:05.416Z,921.35
2022-11-17T18:44:05.327Z,921.33
2022-11-17T18:45:05.300Z,921.35
2022-11-17T18:46:05.404Z,921.34
2022-11-17T18:47:10.055Z,921.33
2022-11-17T18:48:05.257Z,921.31
2022-11-17T18:49:05.211Z,921.29
2022-11-17T18:50:05.191Z,921.28
2022-11-17T18:51:19.078Z,921.27
2022-11-17T18:52:06.217Z,921.30
2022-11-17T18:53:05.273Z,921.27
2022-11-17T18:54:05.157Z,921.26
2022-11-17T18:55:05.219Z,921.26
2022-11-17T18:56:05.155Z,921.28
2022-11-17T18:57:05.164Z,921.25
2022-11-17T18:58:05.195Z,921.21
2022-11-17T18:59:05.121Z,921.26
2022-11-17T19:00:05.162Z,921.30
2022-11-17T19:01:05.166Z,921.30
2022-11-17T19:02:05.134Z,921.30
2022-11-17T19:03:05.558Z,921.27
2022-11-17T19:04:05.100Z,921.26
2022-11-17T19:05:05.064Z,921.25
2022-11-17T19:06:05.023Z,921.26
2022-11-17T19:07:05.104Z,921.29
2022-11-17T19:08:05.024Z,921.33
2022-11-17T19:09:05.068Z,921.37
2022-11-17T19:10:04.997Z,921.36
2022-11-17T19:11:06.377Z,921.38
2022-11-17T19:12:05.092Z,921.43
2022-11-17T19:13:04.961Z,921.47
2022-11-17T19:14:05.010Z,921.46
2022-11-17T19:15:04.966Z,921.52
2022-11-17T19:16:04.945Z,921.50
2022-11-17T19:17:09.561Z,921.53
2022-11-17T19:18:04.932Z,921.50
2022-11-17T19:19:04.957Z,921.54
2022-11-17T19:20:04.906Z,921.53
2022-11-17T19:21:04.871Z,921.52
2022-11-17T19:22:04.892Z,921.54
2022-11-17T19:23:04.875Z,921.56
2022-11-17T19:24:04.873Z,921.50
2022-11-17T19:25:04.835Z,921.55
2022-11-17T19:26:04.817Z,921.49
2022-11-17T19:27:05.008Z,921.52
2022-11-17T19:28:04.820Z,921.51
2022-11-17T19:29:04.825Z,921.49
2022-11-17T19:30:04.828Z,921.45
2022-11-17T19:31:04.791Z,921.46
2022-11-17T19:32:04.830Z,921.44
2022-11-17T19:33:04.837Z,921.42
2022-11-17T19:34:04.772Z,921.45
2022-11-17T19:35:14.633Z,921.45
2022-11-17T19:36:05.727Z,921.48
2022-11-17T19:37:04.796Z,921.43
2022-11-17T19:38:04.726Z,921.43
2022-11-17T19:39:04.697Z,921.51
2022-11-17T19:40:04.702Z,921.50
2022-11-17T19:41:04.683Z,921.51
2022-11-17T19:42:04.707Z,921.48
2022-11-17T19:43:04.644Z,921.58
2022-11-17T19:44:04.704Z,921.57
2022-11-17T19:45:04.621Z,921.57
2022-11-17T19:46:04.626Z,921.62
2022-11-17T19:47:04.656Z,921.63
2022-11-17T19:48:04.615Z,921.61
2022-11-17T19:49:04.769Z,921.63
2022-11-17T19:50:04.605Z,921.63